createdAt,value
2023-11-23T00:02:18.479Z,36.56
2023-11-23T00:04:44.870Z,36.78
2023-11-23T00:07:11.240Z,36.45
2023-11-23T00:09:37.610Z,36.58
2023-11-23T00:12:03.993Z,36.78
2023-11-23T00:14:30.386Z,36.92
2023-11-23T00:16:56.754Z,36.98
2023-11-23T00:19:23.145Z,36.63
2023-11-23T00:21:49.496Z,36.89
2023-11-23T00:24:15.957Z,36.87
2023-11-23T00:26:42.337Z,36.59
2023-11-23T00:29:08.681Z,37.10
2023-11-23T00:31:35.026Z,37.09
2023-11-23T00:34:01.499Z,37.09
2023-11-23T00:36:27.974Z,36.86
2023-11-23T00:38:54.314Z,36.92
2023-11-23T00:41:20.662Z,37.07
2023-11-23T00:43:46.994Z,36.96
2023-11-23T00:46:13.347Z,37.09
2023-11-23T00:48:39.774Z,36.90
2023-11-23T00:51:06.209Z,36.90
2023-11-23T00:53:32.569Z,36.97
2023-11-23T00:55:58.925Z,37.07
2023-11-23T00:58:25.289Z,36.99
2023-11-23T01:00:51.665Z,37.37
2023-11-23T01:03:18.187Z,37.36
2023-11-23T01:05:44.596Z,37.24
2023-11-23T01:08:10.928Z,37.47
2023-11-23T01:10:37.276Z,37.11
2023-11-23T01:13:03.618Z,37.46
2023-11-23T01:15:29.993Z,37.29
2023-11-23T01:17:56.413Z,37.49
2023-11-23T01:20:22.782Z,37.50
2023-11-23T01:22:49.125Z,37.41
2023-11-23T01:25:15.480Z,37.41
2023-11-23T01:27:41.812Z,37.57
2023-11-23T01:30:08.221Z,37.29
2023-11-23T01:32:34.760Z,37.30
2023-11-23T01:35:01.142Z,37.54
2023-11-23T01:37:27.526Z,37.25
2023-11-23T01:39:53.863Z,37.30
2023-11-23T01:42:20.196Z,37.39
2023-11-23T01:44:46.562Z,37.35
2023-11-23T01:47:12.946Z,37.20
2023-11-23T01:49:39.310Z,37.77
2023-11-23T01:52:05.664Z,37.62
2023-11-23T01:54:32.039Z,37.73
2023-11-23T01:56:58.386Z,37.80
2023-11-23T01:59:24.785Z,37.47
2023-11-23T02:01:51.143Z,37.45
2023-11-23T02:04:17.584Z,37.79
2023-11-23T02:06:43.964Z,37.59
2023-11-23T02:09:10.332Z,37.49
2023-11-23T02:11:36.710Z,37.84
2023-11-23T02:14:03.061Z,37.61
2023-11-23T02:16:29.461Z,38.00
2023-11-23T02:18:55.838Z,37.98
2023-11-23T02:21:22.186Z,37.60
2023-11-23T02:23:48.590Z,37.71
2023-11-23T02:26:14.932Z,37.54
2023-11-23T02:28:41.265Z,37.74
2023-11-23T02:31:07.620Z,37.57
2023-11-23T02:33:34.111Z,37.61
2023-11-23T02:36:00.529Z,37.93
2023-11-23T02:38:26.893Z,37.69
2023-11-23T02:40:53.246Z,37.86
2023-11-23T02:43:19.578Z,38.00
2023-11-23T02:45:45.942Z,37.92
2023-11-23T02:48:12.380Z,37.79
2023-11-23T02:50:38.785Z,37.98
2023-11-23T02:53:05.232Z,37.99
2023-11-23T02:55:31.595Z,38.12
2023-11-23T02:57:57.943Z,37.70
2023-11-23T03:00:24.315Z,37.87
2023-11-23T03:02:50.751Z,38.23
2023-11-23T03:05:17.140Z,37.86
2023-11-23T03:07:43.502Z,38.34
2023-11-23T03:10:09.859Z,38.12
2023-11-23T03:12:36.208Z,38.00
2023-11-23T03:15:02.600Z,38.21
2023-11-23T03:17:29.067Z,37.97
2023-11-23T03:19:55.442Z,38.12
2023-11-23T03:22:21.769Z,38.08
2023-11-23T03:24:48.120Z,38.38
2023-11-23T03:27:14.479Z,38.17
2023-11-23T03:29:40.882Z,38.00
2023-11-23T03:32:07.226Z,38.18
2023-11-23T03:34:33.591Z,38.39
2023-11-23T03:36:59.955Z,38.30
2023-11-23T03:39:26.332Z,38.16
2023-11-23T03:41:52.732Z,38.52
2023-11-23T03:44:19.079Z,38.39
2023-11-23T03:46:45.449Z,38.10
2023-11-23T03:49:11.813Z,38.09
2023-11-23T03:51:38.163Z,38.40
2023-11-23T03:54:04.620Z,38.23
2023-11-23T03:56:31.068Z,38.23
2023-11-23T03:58:57.432Z,38.35
2023-11-23T04:01:23.788Z,38.58
2023-11-23T04:03:50.198Z,38.51
2023-11-23T04:06:16.700Z,38.16
2023-11-23T04:08:43.062Z,38.28
2023-11-23T04:11:09.420Z,38.52
2023-11-23T04:13:35.825Z,38.25
2023-11-23T04:16:02.209Z,38.49
2023-11-23T04:18:28.597Z,38.69
2023-11-23T04:20:55.024Z,38.68
2023-11-23T04:23:21.407Z,38.74
2023-11-23T04:25:47.756Z,38.46
2023-11-23T04:28:14.097Z,38.42
2023-11-23T04:30:40.480Z,38.57
2023-11-23T04:33:06.885Z,38.82
2023-11-23T04:35:33.321Z,38.72
2023-11-23T04:37:59.670Z,38.82
2023-11-23T04:40:26.007Z,38.72
2023-11-23T04:42:52.362Z,38.53
2023-11-23T04:45:18.764Z,38.49
2023-11-23T04:47:45.212Z,38.63
2023-11-23T04:50:11.606Z,38.89
2023-11-23T04:52:37.973Z,38.68
2023-11-23T04:55:04.376Z,39.01
2023-11-23T04:57:30.802Z,38.67
2023-11-23T04:59:57.147Z,38.47
2023-11-23T05:02:23.514Z,38.48
2023-11-23T05:04:49.864Z,38.83
2023-11-23T05:07:16.227Z,39.04
2023-11-23T05:09:42.613Z,39.03
2023-11-23T05:12:09.000Z,38.92
2023-11-23T05:14:35.570Z,38.94
2023-11-23T05:17:02.009Z,39.01
2023-11-23T05:19:36.217Z,38.94
2023-11-23T05:22:08.662Z,39.01
2023-11-23T05:24:35.128Z,38.83
2023-11-23T05:27:01.537Z,38.74
2023-11-23T05:29:27.889Z,38.87
2023-11-23T05:31:54.293Z,38.81
2023-11-23T05:34:20.649Z,38.91
2023-11-23T05:36:47.016Z,38.97
2023-11-23T05:39:13.427Z,38.88
2023-11-23T05:41:39.777Z,38.81
2023-11-23T05:44:06.126Z,39.12
2023-11-23T05:46:32.505Z,38.86
2023-11-23T05:48:58.863Z,39.12
2023-11-23T05:51:25.286Z,39.11
2023-11-23T05:53:51.678Z,38.99
2023-11-23T05:56:18.021Z,39.48
2023-11-23T05:58:44.370Z,39.10
2023-11-23T06:01:12.630Z,39.21
2023-11-23T06:03:39.523Z,39.29
2023-11-23T06:06:06.192Z,39.41
2023-11-23T06:08:32.563Z,39.55
2023-11-23T06:10:58.944Z,39.27
2023-11-23T06:13:25.287Z,39.07
2023-11-23T06:15:51.709Z,39.52
2023-11-23T06:18:18.215Z,39.13
2023-11-23T06:20:44.638Z,39.52
2023-11-23T06:23:11.024Z,39.68
2023-11-23T06:25:37.369Z,39.28
2023-11-23T06:30:32.932Z,39.74
2023-11-23T06:32:59.307Z,39.65
2023-11-23T06:35:25.741Z,39.29
2023-11-23T06:37:52.069Z,39.73
2023-11-23T06:40:18.417Z,39.33
2023-11-23T06:42:44.778Z,39.52
2023-11-23T06:45:11.142Z,39.88
2023-11-23T06:47:37.559Z,39.93
2023-11-23T06:50:03.928Z,39.67
2023-11-23T06:52:30.269Z,39.70
2023-11-23T06:54:56.635Z,39.48
2023-11-23T06:57:23.046Z,39.74
2023-11-23T06:59:49.463Z,39.79
2023-11-23T07:02:15.952Z,39.59
2023-11-23T07:04:42.405Z,39.88
2023-11-23T07:07:08.841Z,39.58
2023-11-23T07:09:35.209Z,39.68
2023-11-23T07:12:01.598Z,39.90
2023-11-23T07:14:27.959Z,39.79
2023-11-23T07:16:54.355Z,39.91
2023-11-23T07:19:20.813Z,40.03
2023-11-23T07:21:47.153Z,40.00
2023-11-23T07:24:13.554Z,40.04
2023-11-23T07:26:39.919Z,39.99
2023-11-23T07:29:06.248Z,40.05
2023-11-23T07:31:32.621Z,40.14
2023-11-23T07:33:58.988Z,39.93
2023-11-23T07:36:25.365Z,40.00
2023-11-23T07:38:51.780Z,40.46
2023-11-23T07:41:18.199Z,40.43
2023-11-23T07:43:44.554Z,40.19
2023-11-23T07:46:10.926Z,40.09
2023-11-23T07:48:37.355Z,40.21
2023-11-23T07:51:03.826Z,40.51
2023-11-23T07:53:30.238Z,40.38
2023-11-23T07:55:56.584Z,40.54
2023-11-23T07:58:22.967Z,40.49
2023-11-23T08:00:49.402Z,40.20
2023-11-23T08:03:15.873Z,40.18
2023-11-23T08:05:42.316Z,40.18
2023-11-23T08:08:08.690Z,40.52
2023-11-23T08:10:35.051Z,40.74
2023-11-23T08:13:01.400Z,40.37
2023-11-23T08:15:27.808Z,40.71
2023-11-23T08:18:01.521Z,40.64
2023-11-23T08:20:33.783Z,40.59
2023-11-23T08:23:00.271Z,40.81
2023-11-23T08:25:26.735Z,40.92
2023-11-23T08:27:53.159Z,40.73
2023-11-23T08:30:19.540Z,40.89
2023-11-23T08:32:45.908Z,40.58
2023-11-23T08:35:12.244Z,40.59
2023-11-23T08:37:38.596Z,40.73
2023-11-23T08:40:04.962Z,40.91
2023-11-23T08:42:31.326Z,41.04
2023-11-23T08:44:57.768Z,41.13
2023-11-23T08:47:24.143Z,40.79
2023-11-23T08:49:50.477Z,41.09
2023-11-23T08:52:16.829Z,41.21
2023-11-23T08:54:43.161Z,40.95
2023-11-23T08:57:09.542Z,40.88
2023-11-23T08:59:35.924Z,41.23
2023-11-23T09:02:05.814Z,40.99
2023-11-23T09:04:44.751Z,41.26
2023-11-23T09:07:12.138Z,41.02
2023-11-23T09:09:38.496Z,41.48
2023-11-23T09:12:04.869Z,41.06
2023-11-23T09:14:37.461Z,41.37
2023-11-23T09:17:09.398Z,41.13
2023-11-23T09:19:35.781Z,41.33
2023-11-23T09:22:02.162Z,41.56
2023-11-23T09:24:28.552Z,41.30
2023-11-23T09:26:54.974Z,41.45
2023-11-23T09:29:21.340Z,41.29
2023-11-23T09:31:47.706Z,41.63
2023-11-23T09:34:14.096Z,41.31
2023-11-23T09:36:40.523Z,41.75
2023-11-23T09:39:06.899Z,41.72
2023-11-23T09:41:33.288Z,41.72
2023-11-23T09:43:59.683Z,41.46
2023-11-23T09:46:26.066Z,41.85
2023-11-23T09:48:52.494Z,41.91
2023-11-23T09:51:18.940Z,41.37
2023-11-23T09:53:45.286Z,41.47
2023-11-23T09:56:11.624Z,41.63
2023-11-23T09:58:37.978Z,41.60
2023-11-23T10:01:04.424Z,42.08
2023-11-23T10:03:30.892Z,41.65
2023-11-23T10:05:57.263Z,42.07
2023-11-23T10:08:23.648Z,41.69
2023-11-23T10:10:50.084Z,42.11
2023-11-23T10:13:16.452Z,41.96
2023-11-23T10:15:42.826Z,42.29
2023-11-23T10:18:09.354Z,41.87
2023-11-23T10:20:37.929Z,42.08
2023-11-23T10:23:05.331Z,42.01
2023-11-23T10:25:31.721Z,42.00
2023-11-23T10:27:58.067Z,41.85
2023-11-23T10:30:24.443Z,41.96
2023-11-23T10:32:50.830Z,41.79
2023-11-23T10:35:17.171Z,42.15
2023-11-23T10:37:43.587Z,42.33
2023-11-23T10:40:10.775Z,42.40
2023-11-23T10:42:38.127Z,42.16
2023-11-23T10:45:04.567Z,42.18
2023-11-23T10:47:30.962Z,42.35
2023-11-23T10:49:57.322Z,41.92
2023-11-23T10:52:23.667Z,42.23
2023-11-23T10:54:49.993Z,42.47
2023-11-23T10:57:16.391Z,42.40
2023-11-23T10:59:42.735Z,42.54
2023-11-23T11:02:09.197Z,42.43
2023-11-23T11:04:35.630Z,42.30
2023-11-23T11:07:01.987Z,42.48
2023-11-23T11:09:30.229Z,42.71
2023-11-23T11:11:57.206Z,42.18
2023-11-23T11:14:23.607Z,42.42
2023-11-23T11:16:49.930Z,42.26
2023-11-23T11:19:16.284Z,42.58
2023-11-23T11:21:42.696Z,42.26
2023-11-23T11:24:09.057Z,42.33
2023-11-23T11:26:35.403Z,42.31
2023-11-23T11:29:01.742Z,42.50
2023-11-23T11:31:28.115Z,42.38
2023-11-23T11:33:54.626Z,42.58
2023-11-23T11:36:21.033Z,42.53
2023-11-23T11:38:47.474Z,42.52
2023-11-23T11:41:13.825Z,42.63
2023-11-23T11:43:40.179Z,42.68
2023-11-23T11:46:06.639Z,42.76
2023-11-23T11:48:33.198Z,42.41
2023-11-23T11:50:59.684Z,42.68
2023-11-23T11:53:26.046Z,42.89
2023-11-23T11:55:52.386Z,42.54
2023-11-23T11:58:18.720Z,42.57
2023-11-23T12:00:45.090Z,42.62
2023-11-23T12:03:11.578Z,42.80
2023-11-23T12:05:38.001Z,42.87
2023-11-23T12:08:04.393Z,42.51
2023-11-23T12:10:30.751Z,42.77
2023-11-23T12:12:57.104Z,42.58
2023-11-23T12:15:23.471Z,42.68
2023-11-23T12:17:49.830Z,42.84
2023-11-23T12:20:16.194Z,42.40
2023-11-23T12:22:42.536Z,42.73
2023-11-23T12:25:08.903Z,42.67
2023-11-23T12:27:35.280Z,42.70
2023-11-23T12:30:01.693Z,42.93
2023-11-23T12:32:28.149Z,43.02
2023-11-23T12:34:54.499Z,42.43
2023-11-23T12:37:20.894Z,42.67
2023-11-23T12:39:47.284Z,43.08
2023-11-23T12:42:13.668Z,42.85
2023-11-23T12:44:40.018Z,42.78
2023-11-23T12:47:06.384Z,42.70
2023-11-23T12:49:32.764Z,43.06
2023-11-23T12:51:59.126Z,42.83
2023-11-23T12:54:25.482Z,42.84
2023-11-23T12:56:51.847Z,42.57
2023-11-23T12:59:18.196Z,43.02
2023-11-23T13:01:44.587Z,42.66
2023-11-23T13:04:11.032Z,43.13
2023-11-23T13:06:37.689Z,42.84
2023-11-23T13:09:04.127Z,42.80
2023-11-23T13:11:30.501Z,42.92
2023-11-23T13:13:56.846Z,42.51
2023-11-23T13:16:23.193Z,42.81
2023-11-23T13:19:05.495Z,42.58
2023-11-23T13:21:35.919Z,42.96
2023-11-23T13:24:02.292Z,43.24
2023-11-23T13:26:28.641Z,42.78
2023-11-23T13:28:54.972Z,42.83
2023-11-23T13:31:21.341Z,42.80
2023-11-23T13:33:47.732Z,43.10
2023-11-23T13:36:14.153Z,43.22
2023-11-23T13:38:40.513Z,42.77
2023-11-23T13:41:06.850Z,42.95
2023-11-23T13:43:33.187Z,43.20
2023-11-23T13:45:59.608Z,43.18
2023-11-23T13:48:26.074Z,43.27
2023-11-23T13:50:52.436Z,43.06
2023-11-23T13:53:18.786Z,43.26
2023-11-23T13:55:45.113Z,43.08
2023-11-23T13:58:11.458Z,43.31
2023-11-23T14:00:37.881Z,43.08
2023-11-23T14:03:04.343Z,42.72
2023-11-23T14:05:30.697Z,43.30
2023-11-23T14:07:57.026Z,43.02
2023-11-23T14:10:23.387Z,43.18
2023-11-23T14:12:49.716Z,43.09
2023-11-23T14:15:17.087Z,42.95
2023-11-23T14:17:43.733Z,43.36
2023-11-23T14:20:10.131Z,43.37
2023-11-23T14:22:36.489Z,43.07
2023-11-23T14:25:02.914Z,43.07
2023-11-23T14:27:30.097Z,43.25
2023-11-23T14:29:57.776Z,42.94
2023-11-23T14:32:24.153Z,43.02
2023-11-23T14:34:50.511Z,43.02
2023-11-23T14:37:16.856Z,43.03
2023-11-23T14:39:43.264Z,43.00
2023-11-23T14:42:09.644Z,43.39
2023-11-23T14:44:36.044Z,42.93
2023-11-23T14:47:02.414Z,43.43
2023-11-23T14:49:28.776Z,43.37
2023-11-23T14:51:55.165Z,43.16
2023-11-23T14:54:28.876Z,43.33
2023-11-23T14:57:01.417Z,43.42
2023-11-23T14:59:27.741Z,43.34
2023-11-23T15:01:54.172Z,43.14
2023-11-23T15:04:20.701Z,43.52
2023-11-23T15:06:47.107Z,43.44
2023-11-23T15:09:13.537Z,43.54
2023-11-23T15:11:39.887Z,43.27
2023-11-23T15:14:06.242Z,43.53
2023-11-23T15:16:32.641Z,43.63
2023-11-23T15:18:59.835Z,43.07
2023-11-23T15:21:28.372Z,43.58
2023-11-23T15:23:55.647Z,43.55
2023-11-23T15:26:22.009Z,43.50
2023-11-23T15:28:48.388Z,43.57
2023-11-23T15:31:14.794Z,43.29
2023-11-23T15:33:41.245Z,43.25
2023-11-23T15:36:07.637Z,43.46
2023-11-23T15:38:34.037Z,43.21
2023-11-23T15:41:00.389Z,43.41
2023-11-23T15:43:26.750Z,43.38
2023-11-23T15:45:53.186Z,43.52
2023-11-23T15:48:19.619Z,43.31
2023-11-23T15:50:46.054Z,43.51
2023-11-23T15:53:12.382Z,43.14
2023-11-23T15:55:38.710Z,43.46
2023-11-23T15:58:05.055Z,43.22
2023-11-23T16:00:31.436Z,43.46
2023-11-23T16:02:58.961Z,43.42
2023-11-23T16:05:25.412Z,43.71
2023-11-23T16:07:51.793Z,43.64
2023-11-23T16:10:18.146Z,43.63
2023-11-23T16:12:44.517Z,43.26
2023-11-23T16:15:10.953Z,43.68
2023-11-23T16:17:37.344Z,43.36
2023-11-23T16:20:03.702Z,43.41
2023-11-23T16:22:30.051Z,43.75
2023-11-23T16:24:56.382Z,43.41
2023-11-23T16:27:22.793Z,43.60
2023-11-23T16:29:49.247Z,43.58
2023-11-23T16:32:15.694Z,43.24
2023-11-23T16:34:42.100Z,43.62
2023-11-23T16:37:10.526Z,43.74
2023-11-23T16:39:38.330Z,43.63
2023-11-23T16:42:04.733Z,43.58
2023-11-23T16:44:31.056Z,43.71
2023-11-23T16:46:57.459Z,43.58
2023-11-23T16:49:23.915Z,43.76
2023-11-23T16:51:50.403Z,43.86
2023-11-23T16:54:16.824Z,43.52
2023-11-23T16:56:43.194Z,44.02
2023-11-23T16:59:11.791Z,43.95
2023-11-23T17:01:38.654Z,43.98
2023-11-23T17:04:05.214Z,43.80
2023-11-23T17:06:31.712Z,43.52
2023-11-23T17:08:58.082Z,43.94
2023-11-23T17:11:24.478Z,43.61
2023-11-23T17:13:50.843Z,43.46
2023-11-23T17:16:17.196Z,43.88
2023-11-23T17:18:43.646Z,43.39
2023-11-23T17:21:10.040Z,43.83
2023-11-23T17:23:36.416Z,43.67
2023-11-23T17:26:02.764Z,43.80
2023-11-23T17:28:29.127Z,43.77
2023-11-23T17:30:55.535Z,43.69
2023-11-23T17:33:21.950Z,43.76
2023-11-23T17:35:48.352Z,43.67
2023-11-23T17:38:14.751Z,43.41
2023-11-23T17:40:41.122Z,43.48
2023-11-23T17:43:07.481Z,43.56
2023-11-23T17:45:33.886Z,43.37
2023-11-23T17:48:00.307Z,43.50
2023-11-23T17:50:26.678Z,43.73
2023-11-23T17:52:53.024Z,43.60
2023-11-23T17:55:19.364Z,43.31
2023-11-23T17:57:45.752Z,43.66
2023-11-23T18:00:12.183Z,43.45
2023-11-23T18:02:38.608Z,43.44
2023-11-23T18:05:04.963Z,43.58
2023-11-23T18:07:31.284Z,43.80
2023-11-23T18:09:57.630Z,43.78
2023-11-23T18:12:24.100Z,43.65
2023-11-23T18:14:50.423Z,43.90
2023-11-23T18:17:16.813Z,43.78
2023-11-23T18:19:43.176Z,43.36
2023-11-23T18:22:09.829Z,43.45
2023-11-23T18:24:36.289Z,43.53
2023-11-23T18:27:02.644Z,43.35
2023-11-23T18:29:29.027Z,43.95
2023-11-23T18:31:55.462Z,43.77
2023-11-23T18:34:21.839Z,43.87
2023-11-23T18:36:48.230Z,43.79
2023-11-23T18:39:14.629Z,43.56
2023-11-23T18:41:40.988Z,43.84
2023-11-23T18:44:07.341Z,43.98
2023-11-23T18:46:33.691Z,43.60
2023-11-23T18:49:00.077Z,43.95
2023-11-23T18:51:26.599Z,43.48
2023-11-23T18:53:52.927Z,43.60
2023-11-23T18:56:19.262Z,43.75
2023-11-23T18:58:45.601Z,43.57
2023-11-23T19:01:12.003Z,43.51
2023-11-23T19:03:38.593Z,43.48
2023-11-23T19:06:05.028Z,43.77
2023-11-23T19:08:31.376Z,43.73
2023-11-23T19:10:57.728Z,43.61
2023-11-23T19:13:24.143Z,43.50
2023-11-23T19:15:50.567Z,43.83
2023-11-23T19:18:16.971Z,43.87
2023-11-23T19:20:43.313Z,43.66
2023-11-23T19:23:09.746Z,43.52
2023-11-23T19:25:36.103Z,44.08
2023-11-23T19:28:02.446Z,43.72
2023-11-23T19:30:28.852Z,43.38
2023-11-23T19:32:55.300Z,43.55
2023-11-23T19:35:21.640Z,43.45
2023-11-23T19:37:47.978Z,43.65
2023-11-23T19:40:14.386Z,43.86
2023-11-23T19:42:40.766Z,43.73
2023-11-23T19:45:07.193Z,44.02
2023-11-23T19:47:33.572Z,43.58
2023-11-23T19:49:59.960Z,43.76
2023-11-23T19:52:26.311Z,43.74
2023-11-23T19:54:52.729Z,43.61
2023-11-23T19:57:19.208Z,43.58
2023-11-23T19:59:45.674Z,43.88
2023-11-23T20:02:12.096Z,43.74
2023-11-23T20:04:38.559Z,43.74
2023-11-23T20:07:04.941Z,43.81
2023-11-23T20:09:31.315Z,43.56
2023-11-23T20:11:57.661Z,43.93
2023-11-23T20:14:24.005Z,43.71
2023-11-23T20:16:50.399Z,43.46
2023-11-23T20:19:17.373Z,43.94
2023-11-23T20:21:44.509Z,43.58
2023-11-23T20:24:10.885Z,43.58
2023-11-23T20:26:37.259Z,43.97
2023-11-23T20:29:03.626Z,43.69
2023-11-23T20:31:30.041Z,43.96
2023-11-23T20:33:56.445Z,43.39
2023-11-23T20:36:22.872Z,43.44
2023-11-23T20:38:49.216Z,43.72
2023-11-23T20:41:15.561Z,43.70
2023-11-23T20:43:42.000Z,43.34
2023-11-23T20:46:08.474Z,43.75
2023-11-23T20:48:34.892Z,43.47
2023-11-23T20:51:01.231Z,43.82
2023-11-23T20:53:27.560Z,43.41
2023-11-23T20:55:53.917Z,43.71
2023-11-23T20:58:20.254Z,43.74
2023-11-23T21:00:46.820Z,43.31
2023-11-23T21:03:13.337Z,43.24
2023-11-23T21:05:39.773Z,43.24
2023-11-23T21:08:06.119Z,43.50
2023-11-23T21:10:32.446Z,43.27
2023-11-23T21:12:58.814Z,43.36
2023-11-23T21:15:25.203Z,43.13
2023-11-23T21:17:51.646Z,43.18
2023-11-23T21:20:18.066Z,43.37
2023-11-23T21:22:44.457Z,43.43
2023-11-23T21:25:10.846Z,43.01
2023-11-23T21:27:37.212Z,43.61
2023-11-23T21:30:03.699Z,43.15
2023-11-23T21:32:30.054Z,43.40
2023-11-23T21:34:56.433Z,43.11
2023-11-23T21:37:22.772Z,43.23
2023-11-23T21:39:49.179Z,43.29
2023-11-23T21:42:15.569Z,43.34
2023-11-23T21:44:41.898Z,43.43
2023-11-23T21:47:08.267Z,43.17
2023-11-23T21:49:34.593Z,43.46
2023-11-23T21:52:00.935Z,43.13
2023-11-23T21:54:27.344Z,43.23
2023-11-23T21:56:53.694Z,43.35
2023-11-23T21:59:20.024Z,43.44
2023-11-23T22:01:46.476Z,43.35
2023-11-23T22:04:12.927Z,43.10
2023-11-23T22:06:39.372Z,43.46
2023-11-23T22:09:05.709Z,43.43
2023-11-23T22:11:32.043Z,43.02
2023-11-23T22:13:58.400Z,43.06
2023-11-23T22:16:24.801Z,43.25
2023-11-23T22:18:51.220Z,43.40
2023-11-23T22:21:17.661Z,43.21
2023-11-23T22:23:44.009Z,43.46
2023-11-23T22:26:10.433Z,43.13
2023-11-23T22:28:36.845Z,43.45
2023-11-23T22:31:03.250Z,43.15
2023-11-23T22:33:29.655Z,43.31
2023-11-23T22:35:56.061Z,43.33
2023-11-23T22:38:22.406Z,43.08
2023-11-23T22:40:48.777Z,43.02
2023-11-23T22:43:15.233Z,43.30
2023-11-23T22:45:41.651Z,43.34
2023-11-23T22:48:08.127Z,43.46
2023-11-23T22:50:34.500Z,42.99
2023-11-23T22:53:00.815Z,43.30
2023-11-23T22:55:27.177Z,43.11
2023-11-23T22:57:53.523Z,43.43
2023-11-23T23:00:19.946Z,43.43
2023-11-23T23:02:46.386Z,43.24
2023-11-23T23:05:12.793Z,43.17
2023-11-23T23:07:39.123Z,43.09
2023-11-23T23:10:05.524Z,43.43
2023-11-23T23:12:31.933Z,43.14
2023-11-23T23:14:58.286Z,43.30
2023-11-23T23:17:24.638Z,43.52
2023-11-23T23:19:51.033Z,43.29
2023-11-23T23:22:24.549Z,43.41
2023-11-23T23:24:55.327Z,43.47
2023-11-23T23:27:21.782Z,43.33
2023-11-23T23:29:48.163Z,43.54
2023-11-23T23:32:14.535Z,43.13
2023-11-23T23:34:41.008Z,43.31
2023-11-23T23:37:07.400Z,43.33
2023-11-23T23:39:33.751Z,43.51
2023-11-23T23:42:00.225Z,43.33
2023-11-23T23:44:26.613Z,43.22
2023-11-23T23:46:53.051Z,43.57
2023-11-23T23:49:19.459Z,43.30
2023-11-23T23:51:45.800Z,43.58
2023-11-23T23:54:12.162Z,43.64
2023-11-23T23:56:38.493Z,43.62
2023-11-23T23:59:04.836Z,43.19
